Portada
METAR-TAF:

METAR-TAF

Aeroports :

Oxford, Anglaterra

latitud: 51-50-13N, longitud: 1-19-12W, altitud: 82 m

Observació

L'informe es va fer fa 2 hores i 9 minuts, a les 17:50 UTC
Vent 6 kt del Nord-Est
Temperatura 22°C
Humitat 41%
Pressió 1021 hPa
Visibilitat 10 km o més
Escasses núvols a una alçada de 4800 ft

METAR: EGTK 011750Z 05006KT 9999 FEW048 22/08 Q1021

Hora: 20:59 (19:59 UTC)

Pronòstic

L'informe es va fer fa 6 hores i 2 minuts, a les 13:57 UTC
Pronòstic vàlid del 01 a les 15 UTC al 01 a les 18 UTC
Vent 9 kt del Est/Nord-Est
Visibilitat 10 km o més
sense núvols per sota de 1500 mi sense presència de cumulonimbus.

TAF: EGTK 011357Z 0115/0118 06009KT CAVOK

Observacions i pronòstics meteorològics de més de 4000 aeroports (METAR i TAF).

Les estacions disponibles són els punts grocs i vermells al mapa.

Posi el ratolí al punt desitjat per veure el nom de l'estació.

Feu clic per veure les observacions i els pronòstics meteorològics.

Per canviar el mapa: feu clic els botons verds amb una creu de color negre per apropar; al botó verd amb un guió per allunyar la imatge; o en les fletxes verdes per a mapes adjacents.


METAR-TAF: